Time;durP1;ratioP1;P1;durP2;ratioP2;P2;SDS_P1;SDS_P2;PMS_P1;PMS_P2;Temp;Humidity;BMP_temperature;BMP_pressure;BME280_temperature;BME280_humidity;BME280_pressure;Samples;Min_cycle;Max_cycle;Signal;HPM_P1;HPM_P2
2022/04/28 00:01:48;;;;;;;12.05;4.20;;;;;;;;;;5024709;28;20045;-57
2022/04/28 00:04:14;;;;;;;7.65;4.68;;;;;;;;;;5025131;28;20049;-57
2022/04/28 00:06:40;;;;;;;11.60;3.67;;;;;;;;;;5024383;28;20050;-56
2022/04/28 00:09:07;;;;;;;10.68;4.57;;;;;;;;;;5025135;28;20081;-58
2022/04/28 00:11:33;;;;;;;10.50;4.15;;;;;;;;;;5024424;28;20362;-58
2022/04/28 00:13:59;;;;;;;15.63;4.57;;;;;;;;;;5024997;28;20053;-57
2022/04/28 00:16:26;;;;;;;14.98;3.83;;;;;;;;;;5024948;28;20045;-57
2022/04/28 00:18:52;;;;;;;12.52;4.20;;;;;;;;;;5024824;28;20049;-57
2022/04/28 00:21:18;;;;;;;13.32;4.63;;;;;;;;;;5024872;28;20053;-57
2022/04/28 00:23:44;;;;;;;9.50;4.30;;;;;;;;;;5024085;28;20045;-57
2022/04/28 00:26:11;;;;;;;10.35;4.22;;;;;;;;;;5024616;28;20038;-57
2022/04/28 00:28:37;;;;;;;9.27;4.15;;;;;;;;;;5023608;28;20522;-57
2022/04/28 00:31:03;;;;;;;9.80;3.90;;;;;;;;;;5006574;28;20077;-57
2022/04/28 00:33:29;;;;;;;11.52;3.80;;;;;;;;;;5025144;28;20091;-57
2022/04/28 00:35:56;;;;;;;9.23;3.72;;;;;;;;;;5024680;28;20052;-57
2022/04/28 00:38:22;;;;;;;10.10;4.50;;;;;;;;;;5023927;28;20037;-57
2022/04/28 00:40:48;;;;;;;7.60;3.85;;;;;;;;;;5024268;28;20099;-56
2022/04/28 00:43:18;;;;;;;9.15;4.05;;;;;;;;;;5024490;28;20052;-57
2022/04/28 00:45:44;;;;;;;10.15;4.25;;;;;;;;;;5024543;28;20044;-57
2022/04/28 00:50:58;;;;;;;9.65;4.18;;;;;;;;;;5024195;28;20077;-57
2022/04/28 00:53:25;;;;;;;14.93;5.05;;;;;;;;;;5023378;28;20161;-57
2022/04/28 00:55:51;;;;;;;9.98;4.55;;;;;;;;;;5024588;28;20530;-57
2022/04/28 00:58:17;;;;;;;7.53;3.92;;;;;;;;;;5024179;28;20077;-57
2022/04/28 01:00:44;;;;;;;14.52;4.78;;;;;;;;;;5023859;28;20467;-57
2022/04/28 01:03:11;;;;;;;10.02;4.10;;;;;;;;;;5006672;28;20053;-57
2022/04/28 01:05:37;;;;;;;7.15;4.15;;;;;;;;;;5046153;23;20060;-57
2022/04/28 01:08:04;;;;;;;11.18;4.22;;;;;;;;;;5025416;28;20226;-57
2022/04/28 01:10:30;;;;;;;9.73;4.53;;;;;;;;;;5044112;28;20044;-56
2022/04/28 01:12:57;;;;;;;9.13;3.67;;;;;;;;;;5044504;28;20110;-58
2022/04/28 01:15:23;;;;;;;11.60;3.83;;;;;;;;;;5044414;28;20140;-58
2022/04/28 01:17:49;;;;;;;13.93;5.50;;;;;;;;;;5044110;28;20048;-57
2022/04/28 01:20:15;;;;;;;12.57;4.80;;;;;;;;;;5043878;28;20045;-57
2022/04/28 01:22:42;;;;;;;8.52;3.97;;;;;;;;;;5042703;28;20474;-58
2022/04/28 01:25:09;;;;;;;12.80;4.10;;;;;;;;;;5043845;28;20509;-57
2022/04/28 01:27:36;;;;;;;7.90;4.25;;;;;;;;;;5043795;28;20041;-57
2022/04/28 01:30:04;;;;;;;10.45;4.25;;;;;;;;;;5044125;28;20053;-58
2022/04/28 01:32:30;;;;;;;11.32;4.75;;;;;;;;;;5043759;28;20044;-57
2022/04/28 01:34:56;;;;;;;13.40;5.18;;;;;;;;;;5044452;28;20122;-57
2022/04/28 01:37:22;;;;;;;8.43;4.15;;;;;;;;;;5042005;28;20045;-57
2022/04/28 01:39:48;;;;;;;9.80;4.20;;;;;;;;;;5043625;28;20068;-57
2022/04/28 01:42:14;;;;;;;6.78;4.20;;;;;;;;;;5044136;28;20453;-57
2022/04/28 01:44:40;;;;;;;12.00;4.60;;;;;;;;;;5025683;28;20099;-58
2022/04/28 01:47:06;;;;;;;13.05;4.53;;;;;;;;;;5043849;28;20072;-57
2022/04/28 01:49:33;;;;;;;8.60;4.03;;;;;;;;;;5025756;28;20041;-57
2022/04/28 01:54:57;;;;;;;16.67;3.83;;;;;;;;;;5043484;28;20048;-57
2022/04/28 01:57:24;;;;;;;15.95;4.50;;;;;;;;;;5043285;28;20049;-57
2022/04/28 01:59:51;;;;;;;7.95;3.97;;;;;;;;;;5042978;28;20060;-57
2022/04/28 02:02:18;;;;;;;9.48;4.30;;;;;;;;;;5044332;28;20041;-58
2022/04/28 02:04:44;;;;;;;9.48;4.07;;;;;;;;;;5047080;28;20057;-58
2022/04/28 02:07:13;;;;;;;10.13;3.97;;;;;;;;;;5046620;28;20053;-57
2022/04/28 02:09:39;;;;;;;8.45;4.60;;;;;;;;;;5047193;28;20559;-58
2022/04/28 02:12:05;;;;;;;9.20;4.20;;;;;;;;;;5047157;28;20047;-57
2022/04/28 02:14:32;;;;;;;11.10;4.38;;;;;;;;;;5046243;28;20041;-57
2022/04/28 02:16:58;;;;;;;10.00;4.40;;;;;;;;;;5047151;28;20053;-57
2022/04/28 02:19:24;;;;;;;12.07;4.45;;;;;;;;;;5047193;28;20101;-57
2022/04/28 02:21:50;;;;;;;10.88;4.57;;;;;;;;;;5046305;28;20071;-57
2022/04/28 02:24:16;;;;;;;10.82;4.18;;;;;;;;;;5042389;28;20104;-57
2022/04/28 02:26:42;;;;;;;7.18;4.40;;;;;;;;;;5026800;28;20046;-58
2022/04/28 02:29:09;;;;;;;10.25;4.00;;;;;;;;;;5045152;28;20041;-57
2022/04/28 02:31:35;;;;;;;11.85;4.15;;;;;;;;;;5046543;28;20059;-57
2022/04/28 02:34:01;;;;;;;14.20;4.40;;;;;;;;;;5046564;28;20052;-57
2022/04/28 02:36:27;;;;;;;10.45;4.18;;;;;;;;;;5046545;28;20056;-57
2022/04/28 02:38:53;;;;;;;11.30;3.88;;;;;;;;;;5046708;28;20048;-57
2022/04/28 02:41:20;;;;;;;11.85;4.65;;;;;;;;;;5046674;28;20045;-57
2022/04/28 02:43:48;;;;;;;11.45;4.72;;;;;;;;;;5045853;28;20053;-57
2022/04/28 02:46:14;;;;;;;10.52;4.00;;;;;;;;;;5046575;28;20041;-57
2022/04/28 02:48:40;;;;;;;10.68;4.65;;;;;;;;;;5046535;28;20049;-57
2022/04/28 02:51:06;;;;;;;11.95;4.60;;;;;;;;;;5045680;28;20215;-58
2022/04/28 02:53:34;;;;;;;10.10;4.32;;;;;;;;;;5046286;28;20063;-57
2022/04/28 02:56:00;;;;;;;10.52;4.93;;;;;;;;;;5029244;28;20040;-57
2022/04/28 02:58:26;;;;;;;9.95;4.75;;;;;;;;;;5045879;28;20128;-57
2022/04/28 03:00:53;;;;;;;12.65;4.80;;;;;;;;;;5046137;28;20056;-57
2022/04/28 03:03:19;;;;;;;10.52;4.88;;;;;;;;;;5046487;28;20045;-57
2022/04/28 03:11:15;;;;;;;14.00;4.68;;;;;;;;;;5046238;28;20051;-56
2022/04/28 03:13:42;;;;;;;8.13;4.07;;;;;;;;;;5045476;28;20445;-58
2022/04/28 03:16:08;;;;;;;8.18;4.07;;;;;;;;;;5045985;28;20075;-57
2022/04/28 03:18:34;;;;;;;8.82;4.22;;;;;;;;;;5045752;28;20068;-57
2022/04/28 03:21:00;;;;;;;11.55;4.28;;;;;;;;;;5045421;28;20496;-58
2022/04/28 03:23:26;;;;;;;13.70;4.63;;;;;;;;;;5046019;28;21271;-57
2022/04/28 03:25:53;;;;;;;11.85;4.85;;;;;;;;;;5045824;28;20045;-57
2022/04/28 03:28:19;;;;;;;8.52;3.90;;;;;;;;;;5046122;28;20041;-58
2022/04/28 03:30:46;;;;;;;11.98;3.70;;;;;;;;;;5045654;28;20131;-57
2022/04/28 03:33:13;;;;;;;10.45;3.28;;;;;;;;;;5027186;28;20052;-57
2022/04/28 03:35:39;;;;;;;13.90;3.60;;;;;;;;;;5045146;28;20037;-57
2022/04/28 03:38:11;;;;;;;8.13;3.17;;;;;;;;;;5045119;28;20513;-57
2022/04/28 03:40:38;;;;;;;9.98;3.00;;;;;;;;;;5045396;28;20094;-57
2022/04/28 03:43:05;;;;;;;11.32;3.05;;;;;;;;;;5045529;28;20048;-58
2022/04/28 03:45:31;;;;;;;7.72;3.85;;;;;;;;;;5045213;28;20048;-57
2022/04/28 03:47:58;;;;;;;9.75;3.25;;;;;;;;;;5045277;28;20194;-57
2022/04/28 03:50:25;;;;;;;9.60;3.78;;;;;;;;;;5027807;28;20498;-57
2022/04/28 03:52:51;;;;;;;9.98;3.28;;;;;;;;;;5044475;28;20044;-57
2022/04/28 03:55:17;;;;;;;8.32;3.58;;;;;;;;;;5044937;28;20517;-58
2022/04/28 03:57:43;;;;;;;8.65;2.95;;;;;;;;;;5044810;28;20140;-57
2022/04/28 04:00:09;;;;;;;6.95;3.47;;;;;;;;;;5045448;28;20037;-57
2022/04/28 04:02:36;;;;;;;6.25;3.17;;;;;;;;;;5044276;28;20268;-58
2022/04/28 04:05:02;;;;;;;6.30;3.00;;;;;;;;;;5044913;28;20053;-58
2022/04/28 04:07:29;;;;;;;7.65;2.92;;;;;;;;;;5044733;28;20045;-57
2022/04/28 04:09:55;;;;;;;9.93;3.50;;;;;;;;;;5045167;28;20053;-57
2022/04/28 04:12:21;;;;;;;8.90;3.13;;;;;;;;;;5044838;28;20130;-57
2022/04/28 04:14:47;;;;;;;8.52;3.05;;;;;;;;;;5044936;28;20052;-57
2022/04/28 04:17:14;;;;;;;7.82;3.28;;;;;;;;;;5044229;28;20041;-58
2022/04/28 04:19:40;;;;;;;11.32;3.60;;;;;;;;;;5044507;28;20045;-57
2022/04/28 04:22:06;;;;;;;19.17;3.92;;;;;;;;;;5043944;28;20095;-57
2022/04/28 04:24:33;;;;;;;7.90;3.08;;;;;;;;;;5044757;28;20479;-57
2022/04/28 04:26:59;;;;;;;10.02;3.13;;;;;;;;;;5044597;28;20542;-57
2022/04/28 04:29:25;;;;;;;10.73;3.92;;;;;;;;;;5038811;28;20545;-57
2022/04/28 04:34:36;;;;;;;9.48;3.65;;;;;;;;;;5024141;28;20407;-58
2022/04/28 04:37:03;;;;;;;10.95;3.13;;;;;;;;;;5023915;28;20152;-58
2022/04/28 04:39:29;;;;;;;7.32;3.72;;;;;;;;;;5024960;28;20103;-57
2022/04/28 04:41:55;;;;;;;7.40;3.00;;;;;;;;;;5024381;28;20060;-58
2022/04/28 04:44:22;;;;;;;11.38;2.92;;;;;;;;;;5024712;28;20041;-57
2022/04/28 04:46:48;;;;;;;8.23;3.60;;;;;;;;;;5024306;28;20056;-57
2022/04/28 04:49:14;;;;;;;13.55;3.85;;;;;;;;;;5024271;28;20132;-57
2022/04/28 04:51:41;;;;;;;10.65;3.25;;;;;;;;;;5023663;28;20038;-57
2022/04/28 04:54:07;;;;;;;9.70;4.03;;;;;;;;;;5024575;28;20045;-58
2022/04/28 04:56:33;;;;;;;11.25;4.05;;;;;;;;;;5022927;28;20477;-57
2022/04/28 04:58:59;;;;;;;11.32;3.63;;;;;;;;;;5006942;28;20080;-58
2022/04/28 05:01:25;;;;;;;14.13;4.45;;;;;;;;;;5025119;28;20052;-57
2022/04/28 05:03:52;;;;;;;10.38;3.90;;;;;;;;;;5042625;28;20052;-57
2022/04/28 05:06:18;;;;;;;8.05;3.22;;;;;;;;;;5042219;28;20045;-57
2022/04/28 05:08:44;;;;;;;9.77;3.47;;;;;;;;;;5027727;28;20491;-57
2022/04/28 05:11:10;;;;;;;11.50;3.72;;;;;;;;;;5023520;28;20045;-58
2022/04/28 05:13:36;;;;;;;9.23;3.38;;;;;;;;;;5023722;28;20050;-58
2022/04/28 05:16:02;;;;;;;18.15;4.15;;;;;;;;;;5024018;28;20038;-58
2022/04/28 05:18:29;;;;;;;14.90;3.70;;;;;;;;;;5024646;28;20075;-58
2022/04/28 05:20:55;;;;;;;16.13;4.43;;;;;;;;;;5023995;28;20061;-57
2022/04/28 05:23:21;;;;;;;25.23;3.83;;;;;;;;;;5023931;28;20558;-58
2022/04/28 05:25:48;;;;;;;9.52;3.30;;;;;;;;;;5023540;28;20547;-58
2022/04/28 05:28:14;;;;;;;12.25;3.22;;;;;;;;;;5023970;28;20197;-58
2022/04/28 05:30:40;;;;;;;12.75;3.50;;;;;;;;;;5023630;28;20760;-59
2022/04/28 05:33:06;;;;;;;10.75;3.78;;;;;;;;;;5023661;28;20442;-57
2022/04/28 05:35:35;;;;;;;12.88;3.13;;;;;;;;;;5023955;28;20041;-60
2022/04/28 05:38:01;;;;;;;11.35;3.40;;;;;;;;;;5025267;28;20033;-59
2022/04/28 05:40:27;;;;;;;12.30;4.05;;;;;;;;;;5027397;28;20073;-59
2022/04/28 05:45:42;;;;;;;15.35;3.92;;;;;;;;;;5027840;28;20071;-59
2022/04/28 05:48:09;;;;;;;14.02;4.38;;;;;;;;;;5033333;28;20038;-59
2022/04/28 05:50:36;;;;;;;10.27;3.13;;;;;;;;;;5030957;28;20439;-59
2022/04/28 05:53:02;;;;;;;10.52;3.47;;;;;;;;;;5035919;28;20388;-58
2022/04/28 05:55:28;;;;;;;8.55;3.63;;;;;;;;;;5036294;28;20045;-58
2022/04/28 05:57:55;;;;;;;13.70;4.00;;;;;;;;;;5031998;28;20187;-58
2022/04/28 06:00:22;;;;;;;11.68;3.03;;;;;;;;;;5036715;28;20112;-59
2022/04/28 06:02:48;;;;;;;8.75;3.58;;;;;;;;;;5035427;28;20050;-59
2022/04/28 06:05:14;;;;;;;9.70;3.35;;;;;;;;;;5032188;28;20098;-58
2022/04/28 06:07:40;;;;;;;10.45;4.05;;;;;;;;;;5035510;28;20041;-59
2022/04/28 06:10:07;;;;;;;10.23;4.07;;;;;;;;;;5031248;28;20037;-58
2022/04/28 06:12:33;;;;;;;13.00;4.00;;;;;;;;;;5031291;28;20281;-59
2022/04/28 06:14:59;;;;;;;9.32;3.55;;;;;;;;;;5035987;28;20053;-58
2022/04/28 06:17:25;;;;;;;14.68;3.55;;;;;;;;;;5031548;28;20101;-58
2022/04/28 06:19:51;;;;;;;6.75;2.90;;;;;;;;;;5026752;28;20044;-58
2022/04/28 06:22:17;;;;;;;8.02;3.55;;;;;;;;;;5026753;28;20056;-57
2022/04/28 06:24:44;;;;;;;10.23;3.53;;;;;;;;;;5031479;28;20045;-58
2022/04/28 06:27:10;;;;;;;7.07;3.47;;;;;;;;;;5044155;28;20045;-58
2022/04/28 06:29:36;;;;;;;8.65;4.15;;;;;;;;;;5038849;28;20110;-57
2022/04/28 06:32:02;;;;;;;9.45;3.60;;;;;;;;;;5038903;28;20037;-57
2022/04/28 06:34:28;;;;;;;12.23;4.50;;;;;;;;;;5034698;28;20048;-57
2022/04/28 06:36:54;;;;;;;11.32;3.97;;;;;;;;;;5044021;28;20051;-57
2022/04/28 06:39:21;;;;;;;17.83;4.47;;;;;;;;;;5027181;28;20742;-57
2022/04/28 06:41:47;;;;;;;11.98;4.05;;;;;;;;;;5044986;28;20048;-57
2022/04/28 06:44:13;;;;;;;10.35;5.22;;;;;;;;;;5036771;28;20585;-57
2022/04/28 06:46:39;;;;;;;10.45;3.97;;;;;;;;;;5041375;28;20091;-58
2022/04/28 06:49:05;;;;;;;11.85;4.60;;;;;;;;;;5044615;28;20099;-57
2022/04/28 06:51:31;;;;;;;7.05;3.72;;;;;;;;;;5043194;28;20401;-58
2022/04/28 06:54:00;;;;;;;7.65;3.60;;;;;;;;;;5043565;28;20047;-57
2022/04/28 06:56:26;;;;;;;9.85;3.17;;;;;;;;;;5041237;28;20136;-57
2022/04/28 06:58:53;;;;;;;10.70;3.85;;;;;;;;;;5044848;28;20059;-57
2022/04/28 07:01:19;;;;;;;9.20;3.65;;;;;;;;;;5044923;28;20120;-57
2022/04/28 07:03:45;;;;;;;11.68;3.10;;;;;;;;;;5044354;28;20128;-57
2022/04/28 07:06:11;;;;;;;6.43;2.60;;;;;;;;;;5034730;28;20045;-57
2022/04/28 07:08:37;;;;;;;11.38;3.10;;;;;;;;;;5043436;28;20076;-57
2022/04/28 07:11:03;;;;;;;11.95;3.03;;;;;;;;;;5043472;28;20045;-58
2022/04/28 07:13:30;;;;;;;10.82;3.03;;;;;;;;;;5044695;28;20041;-57
2022/04/28 07:15:56;;;;;;;10.43;3.10;;;;;;;;;;5030028;28;20042;-57
2022/04/28 07:18:22;;;;;;;7.95;2.78;;;;;;;;;;5025459;28;20407;-57
2022/04/28 07:20:48;;;;;;;13.10;3.22;;;;;;;;;;5037619;28;20034;-57
2022/04/28 07:23:15;;;;;;;10.32;2.65;;;;;;;;;;5025763;28;20108;-58
2022/04/28 07:25:41;;;;;;;9.82;2.60;;;;;;;;;;5028897;28;20407;-57
2022/04/28 07:28:08;;;;;;;11.00;2.80;;;;;;;;;;5025778;28;20045;-58
2022/04/28 07:30:34;;;;;;;10.13;2.65;;;;;;;;;;5025460;28;20549;-58
2022/04/28 07:33:00;;;;;;;7.60;2.05;;;;;;;;;;5025099;28;20067;-58
2022/04/28 07:35:26;;;;;;;8.43;2.10;;;;;;;;;;5039928;28;20041;-57
2022/04/28 07:37:52;;;;;;;10.20;2.17;;;;;;;;;;5043878;28;20179;-57
2022/04/28 07:40:19;;;;;;;10.40;3.10;;;;;;;;;;5043957;28;20482;-57
2022/04/28 07:42:45;;;;;;;9.00;2.20;;;;;;;;;;5022860;28;20045;-58
2022/04/28 07:45:11;;;;;;;9.32;1.90;;;;;;;;;;5028797;28;20056;-58
2022/04/28 07:47:37;;;;;;;5.53;1.80;;;;;;;;;;5024527;28;20484;-58
2022/04/28 07:50:04;;;;;;;7.10;2.00;;;;;;;;;;5043445;28;20525;-57
2022/04/28 07:52:30;;;;;;;6.95;2.10;;;;;;;;;;5042443;28;20609;-58
2022/04/28 07:54:57;;;;;;;5.07;1.88;;;;;;;;;;5030543;28;20115;-58
2022/04/28 07:57:23;;;;;;;7.15;1.50;;;;;;;;;;5038273;28;20060;-57
2022/04/28 07:59:50;;;;;;;9.13;1.90;;;;;;;;;;5035437;28;20033;-57
2022/04/28 08:02:16;;;;;;;7.00;2.50;;;;;;;;;;5024299;28;20048;-57
2022/04/28 08:04:43;;;;;;;9.55;2.22;;;;;;;;;;5034333;28;20057;-57
2022/04/28 08:07:10;;;;;;;14.77;2.70;;;;;;;;;;5042288;28;20041;-57
2022/04/28 08:09:36;;;;;;;11.32;2.90;;;;;;;;;;5034277;28;20120;-58
2022/04/28 08:12:02;;;;;;;9.27;2.20;;;;;;;;;;5024968;28;20127;-58
2022/04/28 08:14:29;;;;;;;9.25;2.33;;;;;;;;;;5015351;28;20118;-57
2022/04/28 08:16:56;;;;;;;8.23;2.22;;;;;;;;;;5024264;28;20522;-57
2022/04/28 08:19:23;;;;;;;8.03;1.87;;;;;;;;;;5025045;28;20041;-57
2022/04/28 08:21:49;;;;;;;5.28;2.53;;;;;;;;;;5023820;28;20033;-57
2022/04/28 08:24:16;;;;;;;9.43;1.77;;;;;;;;;;5032293;28;20037;-57
2022/04/28 08:26:42;;;;;;;9.10;2.08;;;;;;;;;;5024327;28;20052;-57
2022/04/28 08:29:08;;;;;;;8.30;1.90;;;;;;;;;;5024529;28;20103;-57
2022/04/28 08:31:37;;;;;;;9.52;1.98;;;;;;;;;;5023801;28;20049;-58
2022/04/28 08:34:04;;;;;;;7.95;1.83;;;;;;;;;;5025551;28;20394;-58
2022/04/28 08:36:30;;;;;;;6.43;1.77;;;;;;;;;;5023109;28;20125;-58
2022/04/28 08:38:56;;;;;;;11.95;2.15;;;;;;;;;;5024595;28;20121;-57
2022/04/28 08:41:32;;;;;;;7.40;2.22;;;;;;;;;;5024697;28;20044;-57
2022/04/28 08:43:59;;;;;;;10.27;2.38;;;;;;;;;;5034461;28;20678;-57
2022/04/28 08:49:12;;;;;;;5.82;1.83;;;;;;;;;;5042754;28;20052;-58
2022/04/28 08:51:39;;;;;;;4.68;1.92;;;;;;;;;;5028734;28;20043;-58
2022/04/28 08:54:06;;;;;;;7.13;1.92;;;;;;;;;;5042293;28;20098;-57
2022/04/28 08:56:32;;;;;;;5.35;1.90;;;;;;;;;;5042539;28;20048;-58
2022/04/28 08:58:58;;;;;;;8.20;2.00;;;;;;;;;;5043227;28;20102;-57
2022/04/28 09:01:25;;;;;;;11.80;2.47;;;;;;;;;;5025724;28;20041;-58
2022/04/28 09:03:52;;;;;;;9.45;1.75;;;;;;;;;;5023552;28;20049;-57
2022/04/28 09:06:28;;;;;;;11.15;2.00;;;;;;;;;;5023439;28;20057;-57
2022/04/28 09:08:55;;;;;;;7.05;1.95;;;;;;;;;;5031937;28;20077;-58
2022/04/28 09:11:24;;;;;;;13.43;2.17;;;;;;;;;;5041369;28;20048;-57
2022/04/28 09:14:10;;;;;;;6.97;1.92;;;;;;;;;;5042247;28;20299;-57
2022/04/28 09:16:47;;;;;;;6.30;1.77;;;;;;;;;;5041132;28;20103;-58
2022/04/28 09:19:16;;;;;;;10.60;1.73;;;;;;;;;;5039447;28;20045;-57
2022/04/28 09:21:42;;;;;;;11.52;1.85;;;;;;;;;;5039137;28;20048;-57
2022/04/28 09:24:09;;;;;;;6.85;1.55;;;;;;;;;;5022076;28;20049;-57
2022/04/28 09:26:35;;;;;;;7.70;2.03;;;;;;;;;;5041084;28;20052;-58
2022/04/28 09:29:03;;;;;;;5.85;1.83;;;;;;;;;;5020767;28;20124;-58
2022/04/28 09:31:30;;;;;;;8.65;2.13;;;;;;;;;;5042314;28;20507;-57
2022/04/28 09:33:56;;;;;;;6.85;1.90;;;;;;;;;;5042733;28;20060;-58
2022/04/28 09:36:22;;;;;;;10.48;1.80;;;;;;;;;;5041648;28;20041;-58
2022/04/28 09:38:53;;;;;;;10.00;2.15;;;;;;;;;;5038678;28;20053;-57
2022/04/28 09:44:05;;;;;;;8.93;1.60;;;;;;;;;;5031314;28;20045;-58
2022/04/28 09:46:31;;;;;;;8.48;2.33;;;;;;;;;;5041833;28;20095;-58
2022/04/28 09:48:58;;;;;;;8.13;1.52;;;;;;;;;;5018283;28;20045;-57
2022/04/28 09:51:25;;;;;;;10.10;2.10;;;;;;;;;;5022305;28;20038;-57
2022/04/28 09:53:51;;;;;;;5.97;1.77;;;;;;;;;;5023395;28;20112;-58
2022/04/28 09:56:24;;;;;;;7.63;2.40;;;;;;;;;;5023302;28;20121;-58
2022/04/28 09:58:51;;;;;;;8.60;1.92;;;;;;;;;;5030204;28;20306;-58
2022/04/28 10:01:18;;;;;;;12.37;2.47;;;;;;;;;;5027953;28;20187;-57
2022/04/28 10:03:45;;;;;;;7.00;2.00;;;;;;;;;;5022389;28;20510;-58
2022/04/28 10:06:12;;;;;;;6.85;1.90;;;;;;;;;;5023615;28;20403;-58
2022/04/28 10:08:39;;;;;;;8.73;1.88;;;;;;;;;;5029832;28;20037;-58
2022/04/28 10:11:06;;;;;;;6.97;2.08;;;;;;;;;;5040654;28;20036;-58
2022/04/28 10:13:33;;;;;;;8.80;2.00;;;;;;;;;;5041497;28;20056;-58
2022/04/28 10:16:01;;;;;;;12.57;2.53;;;;;;;;;;5042061;28;20155;-57
2022/04/28 10:18:32;;;;;;;7.03;2.40;;;;;;;;;;5035101;28;20150;-57
2022/04/28 10:21:00;;;;;;;10.88;2.40;;;;;;;;;;5037724;28;20044;-57
2022/04/28 10:34:33;;;;;;;6.85;2.00;;;;;;;;;;5022171;28;20077;-57
2022/04/28 10:37:00;;;;;;;8.32;2.20;;;;;;;;;;5045187;28;20037;-57
2022/04/28 10:39:39;;;;;;;9.98;2.30;;;;;;;;;;5033154;28;20162;-57
2022/04/28 10:42:13;;;;;;;12.05;2.35;;;;;;;;;;5045142;28;20080;-58
2022/04/28 10:44:42;;;;;;;6.72;2.13;;;;;;;;;;5040657;28;20114;-58
2022/04/28 10:47:08;;;;;;;6.95;2.67;;;;;;;;;;5023723;28;20050;-58
2022/04/28 10:49:40;;;;;;;7.18;2.80;;;;;;;;;;5030236;28;20041;-58
2022/04/28 10:52:07;;;;;;;10.73;2.72;;;;;;;;;;5036399;28;20041;-57
2022/04/28 10:54:43;;;;;;;10.18;2.95;;;;;;;;;;5036584;28;20051;-58
2022/04/28 10:57:12;;;;;;;12.13;3.88;;;;;;;;;;5038515;28;20118;-58
2022/04/28 10:59:39;;;;;;;12.73;3.17;;;;;;;;;;5027912;28;20037;-58
2022/04/28 11:02:13;;;;;;;11.38;3.40;;;;;;;;;;5023413;28;20609;-58
2022/04/28 11:04:40;;;;;;;11.82;3.53;;;;;;;;;;5024218;28;20620;-58
2022/04/28 11:07:11;;;;;;;12.55;3.72;;;;;;;;;;5037030;28;20049;-58
2022/04/28 11:09:39;;;;;;;10.60;3.40;;;;;;;;;;5037774;28;20088;-57
2022/04/28 11:12:11;;;;;;;15.80;3.30;;;;;;;;;;5037603;28;20037;-58
2022/04/28 11:14:45;;;;;;;11.57;3.42;;;;;;;;;;5038933;28;20076;-57
2022/04/28 11:17:12;;;;;;;11.82;4.15;;;;;;;;;;5045495;28;20045;-57
2022/04/28 11:19:38;;;;;;;8.40;4.00;;;;;;;;;;5045177;28;20091;-59
2022/04/28 11:22:04;;;;;;;11.18;4.00;;;;;;;;;;5045356;28;20238;-58
2022/04/28 11:24:32;;;;;;;12.95;3.95;;;;;;;;;;5044690;28;20407;-58
2022/04/28 11:27:00;;;;;;;12.57;5.03;;;;;;;;;;5045615;28;20045;-57
2022/04/28 11:29:28;;;;;;;9.52;3.60;;;;;;;;;;5045553;28;20326;-57
2022/04/28 11:31:54;;;;;;;10.77;3.60;;;;;;;;;;5045239;28;20107;-58
2022/04/28 11:34:21;;;;;;;12.95;4.13;;;;;;;;;;5044676;28;20080;-58
2022/04/28 11:36:47;;;;;;;14.10;4.13;;;;;;;;;;5044182;28;20032;-57
2022/04/28 11:39:13;;;;;;;10.20;4.30;;;;;;;;;;5045297;28;20045;-58
2022/04/28 11:41:41;;;;;;;8.65;3.70;;;;;;;;;;5044902;28;20041;-58
2022/04/28 11:44:07;;;;;;;10.85;4.15;;;;;;;;;;5045029;28;20041;-58
2022/04/28 11:46:35;;;;;;;17.50;4.20;;;;;;;;;;5044237;28;20037;-58
2022/04/28 11:49:01;;;;;;;10.60;3.75;;;;;;;;;;5044848;28;20072;-58
2022/04/28 11:51:27;;;;;;;16.60;4.18;;;;;;;;;;5044222;28;20487;-57
2022/04/28 11:53:54;;;;;;;8.27;3.83;;;;;;;;;;5044997;28;20080;-58
2022/04/28 11:56:22;;;;;;;12.80;3.83;;;;;;;;;;5044583;28;20372;-58
2022/04/28 11:58:49;;;;;;;7.78;3.63;;;;;;;;;;5044807;28;20048;-58
2022/04/28 12:01:16;;;;;;;14.25;3.47;;;;;;;;;;5044821;28;20110;-57
2022/04/28 12:03:51;;;;;;;15.10;4.82;;;;;;;;;;5044330;28;20044;-58
2022/04/28 12:06:17;;;;;;;11.15;3.47;;;;;;;;;;5043590;28;20709;-58
2022/04/28 12:08:48;;;;;;;7.03;3.30;;;;;;;;;;5044230;28;20045;-57
2022/04/28 12:14:22;;;;;;;14.13;3.60;;;;;;;;;;5044563;28;20092;-58
2022/04/28 12:19:33;;;;;;;10.73;2.85;;;;;;;;;;5043056;28;20056;-58
2022/04/28 12:22:03;;;;;;;10.93;3.40;;;;;;;;;;5044844;28;20116;-58
2022/04/28 12:24:33;;;;;;;12.10;3.50;;;;;;;;;;5044759;28;20048;-58
2022/04/28 12:27:05;;;;;;;12.15;3.33;;;;;;;;;;5044611;28;20045;-57
2022/04/28 12:29:31;;;;;;;8.57;2.95;;;;;;;;;;5043262;28;20048;-58
2022/04/28 12:31:59;;;;;;;11.75;3.38;;;;;;;;;;5044330;28;20383;-57
2022/04/28 12:34:25;;;;;;;8.48;2.83;;;;;;;;;;5044319;28;20387;-59
2022/04/28 12:36:59;;;;;;;12.95;2.88;;;;;;;;;;5043772;28;20041;-58
2022/04/28 12:39:26;;;;;;;12.60;2.83;;;;;;;;;;5043940;28;20045;-58
2022/04/28 12:41:53;;;;;;;6.93;2.60;;;;;;;;;;5043911;28;20426;-57
2022/04/28 12:44:20;;;;;;;11.75;3.10;;;;;;;;;;5043883;28;20319;-57
2022/04/28 12:46:46;;;;;;;10.57;2.70;;;;;;;;;;5043309;28;20072;-58
2022/04/28 12:49:14;;;;;;;10.15;3.83;;;;;;;;;;5043753;28;20114;-58
2022/04/28 12:51:42;;;;;;;12.43;2.72;;;;;;;;;;5042449;28;20036;-58
2022/04/28 12:54:10;;;;;;;9.20;2.70;;;;;;;;;;5043849;28;20053;-58
2022/04/28 12:56:37;;;;;;;10.88;3.92;;;;;;;;;;5043460;28;20128;-58
2022/04/28 12:59:05;;;;;;;7.07;2.45;;;;;;;;;;5043883;28;20045;-58
2022/04/28 13:01:32;;;;;;;9.65;2.95;;;;;;;;;;5042875;28;20076;-58
2022/04/28 13:03:59;;;;;;;12.77;2.75;;;;;;;;;;5043663;28;20106;-57
2022/04/28 13:06:26;;;;;;;11.90;3.40;;;;;;;;;;5043709;28;20533;-58
2022/04/28 13:08:53;;;;;;;10.40;2.78;;;;;;;;;;5043454;28;20081;-57
2022/04/28 13:11:24;;;;;;;14.23;2.63;;;;;;;;;;5043379;28;20476;-58
2022/04/28 13:13:51;;;;;;;8.35;2.65;;;;;;;;;;5043642;28;20048;-58
2022/04/28 13:16:17;;;;;;;7.07;2.45;;;;;;;;;;5043823;28;20049;-58
2022/04/28 13:18:44;;;;;;;10.25;2.65;;;;;;;;;;5043383;28;20684;-58
2022/04/28 13:21:12;;;;;;;9.65;2.70;;;;;;;;;;5042788;28;20048;-58
2022/04/28 13:23:39;;;;;;;12.10;2.53;;;;;;;;;;5042678;28;20064;-58
2022/04/28 13:26:05;;;;;;;8.40;2.83;;;;;;;;;;5043452;28;20069;-57
2022/04/28 13:28:31;;;;;;;13.20;2.85;;;;;;;;;;5043669;28;20052;-58
2022/04/28 13:30:57;;;;;;;10.13;2.70;;;;;;;;;;5043758;28;20048;-58
2022/04/28 13:33:23;;;;;;;10.23;2.92;;;;;;;;;;5042775;28;20045;-58
2022/04/28 13:35:50;;;;;;;12.98;3.00;;;;;;;;;;5042364;28;20606;-58
2022/04/28 13:38:16;;;;;;;10.13;2.90;;;;;;;;;;5043712;28;20045;-58
2022/04/28 13:40:42;;;;;;;7.35;2.40;;;;;;;;;;5043304;28;20041;-58
2022/04/28 13:43:08;;;;;;;11.57;2.85;;;;;;;;;;5043290;28;20045;-57
2022/04/28 13:45:35;;;;;;;7.65;2.38;;;;;;;;;;5042688;28;20045;-58
2022/04/28 13:48:01;;;;;;;8.68;2.63;;;;;;;;;;5043111;28;20134;-58
2022/04/28 13:50:27;;;;;;;10.88;2.53;;;;;;;;;;5043317;28;20060;-58
2022/04/28 13:52:54;;;;;;;11.68;2.78;;;;;;;;;;5042760;28;20041;-58
2022/04/28 13:55:20;;;;;;;10.80;2.85;;;;;;;;;;5042950;28;20095;-58
2022/04/28 13:57:46;;;;;;;8.15;2.97;;;;;;;;;;5042235;28;20045;-58
2022/04/28 14:00:14;;;;;;;15.00;2.88;;;;;;;;;;5046632;28;20095;-58
2022/04/28 14:02:40;;;;;;;11.10;2.85;;;;;;;;;;5046754;28;20053;-58
2022/04/28 14:05:06;;;;;;;6.97;2.17;;;;;;;;;;5024865;28;20751;-58
2022/04/28 14:07:36;;;;;;;10.38;3.00;;;;;;;;;;5026290;28;20049;-58
2022/04/28 14:10:03;;;;;;;8.02;2.83;;;;;;;;;;5027047;28;20053;-58
2022/04/28 14:12:29;;;;;;;8.82;2.67;;;;;;;;;;5027136;28;20053;-58
2022/04/28 14:14:55;;;;;;;11.88;2.40;;;;;;;;;;5027693;28;20128;-58
2022/04/28 14:17:21;;;;;;;7.47;2.70;;;;;;;;;;5027048;28;20140;-58
2022/04/28 14:19:47;;;;;;;12.07;2.40;;;;;;;;;;5025095;28;20049;-58
2022/04/28 14:22:17;;;;;;;12.48;2.05;;;;;;;;;;5026557;28;20111;-58
2022/04/28 14:24:45;;;;;;;12.98;2.60;;;;;;;;;;5026615;28;20054;-58
2022/04/28 14:27:12;;;;;;;11.13;2.60;;;;;;;;;;5026707;28;20045;-58
2022/04/28 14:29:38;;;;;;;9.77;3.20;;;;;;;;;;5026368;28;20100;-58
2022/04/28 14:32:04;;;;;;;8.40;2.15;;;;;;;;;;5026788;28;20042;-58
2022/04/28 14:34:30;;;;;;;7.88;2.50;;;;;;;;;;5025514;28;20081;-59
2022/04/28 14:36:57;;;;;;;8.70;2.60;;;;;;;;;;5026596;28;20048;-58
2022/04/28 14:39:23;;;;;;;11.27;2.35;;;;;;;;;;5026766;28;20045;-58
2022/04/28 14:41:50;;;;;;;7.07;2.10;;;;;;;;;;5025729;28;20489;-58
2022/04/28 14:44:16;;;;;;;9.98;2.30;;;;;;;;;;5026290;28;20057;-58
2022/04/28 14:46:43;;;;;;;10.55;2.47;;;;;;;;;;5026052;28;20487;-58
2022/04/28 14:54:40;;;;;;;9.02;2.45;;;;;;;;;;5025842;28;20050;-58
2022/04/28 14:57:07;;;;;;;10.35;2.38;;;;;;;;;;5026100;28;20046;-58
2022/04/28 14:59:33;;;;;;;9.90;2.10;;;;;;;;;;5025345;28;20112;-58
2022/04/28 15:01:59;;;;;;;12.55;2.10;;;;;;;;;;5026423;28;20055;-58
2022/04/28 15:04:25;;;;;;;10.88;2.63;;;;;;;;;;5021484;28;20388;-58
2022/04/28 15:06:52;;;;;;;8.13;2.50;;;;;;;;;;5005536;28;20470;-58
2022/04/28 15:09:18;;;;;;;10.52;2.38;;;;;;;;;;5005591;28;20077;-58
2022/04/28 15:11:45;;;;;;;12.70;2.40;;;;;;;;;;5005695;28;20034;-58
2022/04/28 15:14:12;;;;;;;7.97;2.47;;;;;;;;;;5006098;28;20117;-58
2022/04/28 15:16:39;;;;;;;7.82;2.53;;;;;;;;;;5005585;28;20042;-58
2022/04/28 15:19:05;;;;;;;10.90;2.08;;;;;;;;;;5005336;28;20103;-58